Time;durP1;ratioP1;P1;durP2;ratioP2;P2;SDS_P1;SDS_P2;PMS_P1;PMS_P2;Temp;Humidity;BMP_temperature;BMP_pressure;BME280_temperature;BME280_humidity;BME280_pressure;Samples;Min_cycle;Max_cycle;Signal;HPM_P1;HPM_P2
2023/07/07 00:00:28;;;;;;;7.05;3.70;;;;;;;-145.69;100.00;52010.69;5091798;28;20676;-93
2023/07/07 00:03:02;;;;;;;8.63;3.90;;;;;;;-145.69;100.00;52052.28;5093507;28;20215;-93
2023/07/07 00:05:36;;;;;;;7.13;3.60;;;;;;;-145.69;100.00;52048.31;5089711;28;20208;-93
2023/07/07 00:08:04;;;;;;;7.63;3.90;;;;;;;-145.69;100.00;52012.69;5090119;28;20600;-93
2023/07/07 00:10:30;;;;;;;7.07;4.13;;;;;;;-145.69;100.00;52064.16;5087627;28;20229;-93
2023/07/07 00:12:58;;;;;;;7.60;3.80;;;;;;;-145.69;100.00;52064.16;5089750;28;20741;-93
2023/07/07 00:15:28;;;;;;;11.23;3.73;;;;;;;-145.69;100.00;52072.09;5090851;28;20268;-93
2023/07/07 00:17:57;;;;;;;7.87;4.10;;;;;;;-145.69;100.00;52028.53;5089369;28;20206;-93
2023/07/07 00:20:26;;;;;;;12.73;3.47;;;;;;;-145.69;100.00;52016.66;5091015;28;20203;-94
2023/07/07 00:22:58;;;;;;;8.63;3.60;;;;;;;-145.69;100.00;52028.53;5090905;28;20210;-93
2023/07/07 00:25:25;;;;;;;7.00;3.83;;;;;;;-145.69;100.00;52076.03;5084183;28;20700;-93
2023/07/07 00:27:52;;;;;;;8.53;3.37;;;;;;;-145.69;100.00;52032.47;5084429;28;20201;-93
2023/07/07 00:30:19;;;;;;;6.53;3.60;;;;;;;-145.69;100.00;52032.47;5087264;28;20297;-94
2023/07/07 00:32:46;;;;;;;8.83;3.97;;;;;;;-145.69;100.00;52046.34;5085862;28;20222;-93
2023/07/07 00:35:24;;;;;;;6.33;3.77;;;;;;;-145.69;100.00;52070.09;5091113;28;20203;-93
2023/07/07 00:37:52;;;;;;;10.63;3.85;;;;;;;-145.69;100.00;52028.53;5087287;28;20657;-93
2023/07/07 00:40:25;;;;;;;6.30;3.70;;;;;;;-145.69;100.00;52054.25;5086420;28;20281;-93
2023/07/07 00:42:52;;;;;;;7.90;3.47;;;;;;;-145.69;100.00;52062.19;5089464;28;20210;-93
2023/07/07 00:45:22;;;;;;;8.60;3.73;;;;;;;-145.69;100.00;52085.94;5088767;28;20198;-93
2023/07/07 00:47:59;;;;;;;6.43;3.70;;;;;;;-145.69;100.00;52046.34;5088623;28;20217;-93
2023/07/07 00:50:31;;;;;;;5.70;3.20;;;;;;;-145.69;100.00;52040.41;5089279;28;20318;-93
2023/07/07 00:52:58;;;;;;;6.70;3.57;;;;;;;-145.69;100.00;52040.41;5087524;28;20226;-93
2023/07/07 00:55:32;;;;;;;5.90;3.57;;;;;;;-145.69;100.00;52026.53;5089949;28;20253;-93
2023/07/07 00:58:05;;;;;;;9.07;3.67;;;;;;;-145.69;100.00;52068.13;5089274;28;20314;-93
2023/07/07 01:00:35;;;;;;;11.83;3.77;;;;;;;-145.69;100.00;52040.41;5085228;28;20202;-93
2023/07/07 01:03:08;;;;;;;11.17;3.90;;;;;;;-145.69;100.00;52060.22;5072165;28;20245;-92
2023/07/07 01:05:37;;;;;;;7.37;3.63;;;;;;;-145.69;100.00;52050.31;5065560;28;20211;-94
2023/07/07 01:08:06;;;;;;;6.13;3.10;;;;;;;-145.69;100.00;52064.16;5065197;28;20206;-94
2023/07/07 01:10:37;;;;;;;7.40;3.77;;;;;;;-145.69;100.00;52020.59;5064389;28;20199;-93
2023/07/07 01:13:06;;;;;;;6.80;3.50;;;;;;;-145.69;100.00;52040.41;5066384;28;20234;-94
2023/07/07 01:15:44;;;;;;;10.00;3.63;;;;;;;-145.69;100.00;52072.09;5061989;28;20287;-94
2023/07/07 01:18:25;;;;;;;7.30;3.73;;;;;;;-145.69;100.00;52058.22;5067766;28;20226;-93
2023/07/07 01:21:02;;;;;;;6.50;3.50;;;;;;;-145.69;100.00;52060.22;5066081;28;20223;-92
2023/07/07 01:24:18;;;;;;;7.30;3.77;;;;;;;-145.69;100.00;52072.09;5066670;28;20207;-93
2023/07/07 01:27:27;;;;;;;14.37;3.47;;;;;;;-145.69;100.00;52032.47;5042060;28;20200;-93
2023/07/07 01:30:39;;;;;;;5.50;3.77;;;;;;;-145.69;100.00;52036.44;5029922;28;20200;-93
2023/07/07 01:33:10;;;;;;;8.70;3.67;;;;;;;-145.69;100.00;52072.09;5062334;28;20253;-93
2023/07/07 01:35:38;;;;;;;12.37;3.77;;;;;;;-145.69;100.00;52040.41;5067337;28;20222;-93
2023/07/07 01:38:06;;;;;;;6.10;3.27;;;;;;;-145.69;100.00;52072.09;5063041;28;20284;-93
2023/07/07 01:40:42;;;;;;;7.37;3.80;;;;;;;-145.69;100.00;52046.34;5066703;28;20226;-93
2023/07/07 01:43:14;;;;;;;8.53;4.10;;;;;;;-145.69;100.00;52038.44;5066236;28;20206;-94
2023/07/07 01:45:49;;;;;;;7.50;4.37;;;;;;;-145.69;100.00;52078.03;5065760;28;20658;-92
2023/07/07 01:48:24;;;;;;;5.30;3.23;;;;;;;-145.69;100.00;52046.34;5063277;28;20233;-93
2023/07/07 01:50:52;;;;;;;9.67;4.00;;;;;;;-145.69;100.00;52068.13;5062527;28;20253;-93
2023/07/07 01:53:26;;;;;;;7.57;3.67;;;;;;;-145.69;100.00;52032.47;5076190;28;20222;-93
2023/07/07 01:55:58;;;;;;;6.73;3.80;;;;;;;-145.69;100.00;52089.91;5086778;28;20194;-93
2023/07/07 01:58:27;;;;;;;7.10;3.70;;;;;;;-145.69;100.00;52036.44;5081758;28;20290;-93
2023/07/07 02:00:57;;;;;;;7.43;3.67;;;;;;;-145.69;100.00;52046.34;5079026;28;20210;-87
2023/07/07 02:03:24;;;;;;;7.43;3.70;;;;;;;-145.69;100.00;52062.19;5074576;28;20195;-93
2023/07/07 02:05:51;;;;;;;7.57;3.40;;;;;;;-145.69;100.00;52099.81;5082486;28;20338;-93
2023/07/07 02:08:20;;;;;;;5.90;3.40;;;;;;;-145.69;100.00;52082.00;5084054;28;20249;-93
2023/07/07 02:10:47;;;;;;;6.37;3.80;;;;;;;-145.69;100.00;52068.13;5085415;28;20195;-93
2023/07/07 02:13:14;;;;;;;6.73;3.87;;;;;;;-145.69;100.00;52078.03;5084895;28;20330;-94
2023/07/07 02:15:41;;;;;;;9.73;3.80;;;;;;;-145.69;100.00;52068.13;5082552;28;20543;-93
2023/07/07 02:18:10;;;;;;;7.40;3.70;;;;;;;-145.69;100.00;52066.16;5079909;28;20205;-93
2023/07/07 02:20:37;;;;;;;5.63;3.47;;;;;;;-145.69;100.00;52046.34;5080742;28;20285;-94
2023/07/07 02:23:04;;;;;;;5.97;3.20;;;;;;;-145.69;100.00;52080.00;5085008;28;20277;-94
2023/07/07 02:25:31;;;;;;;7.83;3.63;;;;;;;-145.69;100.00;52064.16;5084765;28;20195;-93
2023/07/07 02:27:58;;;;;;;12.57;3.87;;;;;;;-145.69;100.00;52078.03;5088100;28;20194;-93
2023/07/07 02:30:25;;;;;;;6.70;3.97;;;;;;;-145.69;100.00;52048.31;5089164;28;20205;-94
2023/07/07 02:32:52;;;;;;;8.27;3.70;;;;;;;-145.69;100.00;52099.81;5087150;28;20700;-93
2023/07/07 02:35:22;;;;;;;6.57;3.93;;;;;;;-145.69;100.00;52058.22;5087600;28;20222;-93
2023/07/07 02:37:49;;;;;;;6.50;3.73;;;;;;;-145.69;100.00;52060.22;5087961;28;20766;-93
2023/07/07 02:40:21;;;;;;;9.10;4.13;;;;;;;-145.69;100.00;52076.03;5087403;28;20213;-94
2023/07/07 02:42:47;;;;;;;6.13;3.67;;;;;;;-145.69;100.00;52066.16;5084442;28;20701;-93
2023/07/07 02:45:14;;;;;;;8.50;4.07;;;;;;;-145.69;100.00;52066.16;5103459;28;20607;-94
2023/07/07 02:47:42;;;;;;;7.37;4.13;;;;;;;-145.69;100.00;52066.16;5107994;28;20202;-94
2023/07/07 02:50:09;;;;;;;9.57;3.87;;;;;;;-145.69;100.00;52048.31;5105668;28;20295;-92
2023/07/07 02:52:37;;;;;;;6.20;3.60;;;;;;;-145.69;100.00;52064.16;5104629;28;20282;-93
2023/07/07 02:55:04;;;;;;;6.77;4.10;;;;;;;-145.69;100.00;52074.06;5103903;28;20266;-92
2023/07/07 02:57:31;;;;;;;7.27;3.50;;;;;;;-145.69;100.00;52103.78;5076412;28;20199;-92
2023/07/07 02:59:58;;;;;;;9.00;3.67;;;;;;;-145.69;100.00;52068.13;5064921;28;20223;-93
2023/07/07 03:02:25;;;;;;;11.70;3.97;;;;;;;-145.69;100.00;52076.03;5063270;28;20207;-93
2023/07/07 03:04:51;;;;;;;9.07;3.93;;;;;;;-145.69;100.00;52074.06;5065144;28;20211;-92
2023/07/07 03:07:18;;;;;;;8.17;4.33;;;;;;;-145.69;100.00;52046.34;5063358;28;20207;-93
2023/07/07 03:09:46;;;;;;;7.33;4.03;;;;;;;-145.69;100.00;52078.03;5066822;28;20233;-90
2023/07/07 03:12:13;;;;;;;10.10;3.83;;;;;;;-145.69;100.00;52076.03;5065537;28;20231;-93
2023/07/07 03:14:40;;;;;;;7.33;4.00;;;;;;;-145.69;100.00;52068.13;5060065;28;20230;-93
2023/07/07 03:17:09;;;;;;;7.50;4.07;;;;;;;-145.69;100.00;52072.09;5060017;28;20237;-92
2023/07/07 03:19:36;;;;;;;7.60;4.27;;;;;;;-145.69;100.00;52076.03;5063827;28;20235;-92
2023/07/07 03:22:03;;;;;;;7.60;4.10;;;;;;;-145.69;100.00;52076.03;5065214;28;20207;-92
2023/07/07 03:24:29;;;;;;;6.37;3.80;;;;;;;-145.69;100.00;52052.28;5064834;28;20204;-92
2023/07/07 03:26:57;;;;;;;8.30;4.27;;;;;;;-145.69;100.00;52078.03;5064222;28;20202;-92
2023/07/07 03:29:24;;;;;;;6.57;3.67;;;;;;;-145.69;100.00;52078.03;5063734;28;20237;-93
2023/07/07 03:31:52;;;;;;;10.27;4.30;;;;;;;-145.69;100.00;52068.13;5062571;28;20294;-93
2023/07/07 03:34:19;;;;;;;11.00;4.10;;;;;;;-145.69;100.00;52072.09;5059771;28;20231;-92
2023/07/07 03:36:49;;;;;;;8.30;4.30;;;;;;;-145.69;100.00;52064.16;5058169;28;20222;-92
2023/07/07 03:39:18;;;;;;;8.23;4.20;;;;;;;-145.69;100.00;52085.94;5063073;28;20562;-92
2023/07/07 03:41:45;;;;;;;6.97;3.90;;;;;;;-145.69;100.00;52072.09;5064584;28;20591;-93
2023/07/07 03:44:15;;;;;;;7.80;3.80;;;;;;;-145.69;100.00;52103.78;5066158;28;20267;-92
2023/07/07 03:46:42;;;;;;;10.60;4.17;;;;;;;-145.69;100.00;52087.94;5082286;28;20199;-93
2023/07/07 03:49:09;;;;;;;7.40;3.80;;;;;;;-145.69;100.00;52109.72;5079197;28;20282;-93
2023/07/07 03:51:38;;;;;;;10.30;4.43;;;;;;;-145.69;100.00;52093.88;5081465;28;20234;-93
2023/07/07 03:54:06;;;;;;;10.77;4.43;;;;;;;-145.69;100.00;52078.03;5081601;28;20310;-93
2023/07/07 03:56:32;;;;;;;8.10;4.07;;;;;;;-145.69;100.00;52074.06;5081551;28;20302;-92
2023/07/07 03:58:59;;;;;;;8.77;3.87;;;;;;;-145.69;100.00;52076.03;5081513;28;20209;-93
2023/07/07 04:01:28;;;;;;;7.43;4.23;;;;;;;-145.69;100.00;52068.13;5085236;28;20248;-92
2023/07/07 04:03:55;;;;;;;8.10;4.07;;;;;;;-145.69;100.00;52064.16;5085267;28;20212;-93
2023/07/07 04:06:22;;;;;;;8.43;4.10;;;;;;;-145.69;100.00;52056.25;5083011;28;20260;-91
2023/07/07 04:08:49;;;;;;;7.80;3.83;;;;;;;-145.69;100.00;52097.84;5080103;28;20207;-92
2023/07/07 04:11:17;;;;;;;7.60;4.33;;;;;;;-145.69;100.00;52062.19;5081855;28;20198;-92
2023/07/07 04:13:45;;;;;;;7.53;4.07;;;;;;;-145.69;100.00;52078.03;5080450;28;20230;-93
2023/07/07 04:16:14;;;;;;;7.17;3.90;;;;;;;-145.69;100.00;52052.28;5080651;28;20221;-93
2023/07/07 04:18:44;;;;;;;7.67;4.17;;;;;;;-145.69;100.00;52080.00;5083015;28;20207;-92
2023/07/07 04:21:13;;;;;;;9.90;4.70;;;;;;;-145.69;100.00;52085.94;5081033;28;20205;-91
2023/07/07 04:23:41;;;;;;;9.10;4.40;;;;;;;-145.69;100.00;52080.00;5083910;28;20199;-93
2023/07/07 04:26:10;;;;;;;10.47;3.93;;;;;;;-145.69;100.00;52093.88;5067568;28;20198;-92
2023/07/07 04:28:37;;;;;;;10.97;4.17;;;;;;;-145.69;100.00;52119.63;5086249;28;20534;-91
2023/07/07 04:31:06;;;;;;;11.37;4.07;;;;;;;-145.69;100.00;52066.16;5085350;28;20207;-93
2023/07/07 04:33:36;;;;;;;10.73;4.53;;;;;;;-145.69;100.00;52072.09;5086667;28;20231;-92
2023/07/07 04:36:08;;;;;;;8.93;4.10;;;;;;;-145.69;100.00;52085.94;5085202;28;20199;-91
2023/07/07 04:38:35;;;;;;;7.80;4.47;;;;;;;-145.69;100.00;52076.03;5083820;28;20203;-92
2023/07/07 04:41:07;;;;;;;9.83;4.17;;;;;;;-145.69;100.00;52087.94;5082471;28;20210;-92
2023/07/07 04:43:35;;;;;;;10.40;4.97;;;;;;;-145.69;100.00;52064.16;5082567;28;20290;-92
2023/07/07 04:46:04;;;;;;;8.77;4.40;;;;;;;-145.69;100.00;52074.06;5084405;28;20229;-93
2023/07/07 04:48:31;;;;;;;9.60;4.30;;;;;;;-145.69;100.00;52087.94;5086345;28;20202;-93
2023/07/07 04:51:09;;;;;;;6.23;3.73;;;;;;;-145.69;100.00;52072.09;5086552;28;20589;-94
2023/07/07 04:53:39;;;;;;;9.60;4.67;;;;;;;-145.69;100.00;52070.09;5088632;28;20309;-94
2023/07/07 04:56:10;;;;;;;8.20;4.13;;;;;;;-145.69;100.00;52060.22;5087039;28;20476;-95
2023/07/07 04:58:39;;;;;;;6.10;3.63;;;;;;;-145.69;100.00;52083.97;5087733;28;20210;-94
2023/07/07 05:01:07;;;;;;;7.93;4.47;;;;;;;-145.69;100.00;52064.16;5081868;28;20669;-92
2023/07/07 05:03:35;;;;;;;7.35;4.22;;;;;;;-145.69;100.00;52080.00;5086312;28;20617;-95
2023/07/07 05:06:03;;;;;;;7.28;3.90;;;;;;;-145.69;100.00;52082.00;5081915;28;20232;-95
2023/07/07 05:08:29;;;;;;;10.05;3.80;;;;;;;-145.69;100.00;52072.09;5087646;28;20202;-94
2023/07/07 05:10:58;;;;;;;7.10;4.10;;;;;;;-145.69;100.00;52074.06;5086403;28;20209;-95
2023/07/07 05:13:25;;;;;;;7.10;4.00;;;;;;;-145.69;100.00;52064.16;5086375;28;20227;-92
2023/07/07 05:15:59;;;;;;;8.55;4.10;;;;;;;-145.69;100.00;52052.28;5085999;28;20214;-95
2023/07/07 05:18:26;;;;;;;12.40;4.25;;;;;;;-145.69;100.00;52093.88;5087892;28;20614;-94
2023/07/07 05:20:52;;;;;;;7.20;4.15;;;;;;;-145.69;100.00;52056.25;5082200;28;20271;-95
2023/07/07 05:23:19;;;;;;;6.78;3.90;;;;;;;-145.69;100.00;52089.91;5077286;28;20230;-93
2023/07/07 05:25:46;;;;;;;9.27;4.30;;;;;;;-145.69;100.00;52050.31;5078232;28;20564;-93
2023/07/07 05:28:14;;;;;;;8.20;3.78;;;;;;;-145.69;100.00;52082.00;5079228;28;20230;-92
2023/07/07 05:30:41;;;;;;;8.18;4.38;;;;;;;-145.69;100.00;52064.16;5077755;28;20217;-92
2023/07/07 05:33:08;;;;;;;8.90;4.82;;;;;;;-145.69;100.00;52068.13;5079033;28;20250;-92
2023/07/07 05:35:35;;;;;;;7.43;3.97;;;;;;;-145.69;100.00;52038.44;5077860;28;20207;-94
2023/07/07 05:38:03;;;;;;;7.28;3.92;;;;;;;-145.69;100.00;52080.00;5079343;28;20198;-95
2023/07/07 05:40:30;;;;;;;8.25;4.80;;;;;;;-145.69;100.00;52056.25;5077700;28;20233;-92
2023/07/07 05:42:56;;;;;;;8.18;4.00;;;;;;;-145.69;100.00;52083.97;5076773;28;20684;-93
2023/07/07 05:45:25;;;;;;;6.57;3.65;;;;;;;-145.69;100.00;52080.00;5075712;28;20203;-93
2023/07/07 05:47:51;;;;;;;6.82;4.10;;;;;;;-145.69;100.00;52091.88;5075962;28;20646;-92
2023/07/07 05:50:18;;;;;;;6.85;3.70;;;;;;;-145.69;100.00;52050.31;5074398;28;20248;-92
2023/07/07 05:52:46;;;;;;;6.70;3.80;;;;;;;-145.69;100.00;52095.84;5074284;28;20203;-93
2023/07/07 05:55:24;;;;;;;7.15;3.75;;;;;;;-145.69;100.00;52068.13;5075160;28;20214;-93
2023/07/07 05:57:50;;;;;;;10.15;4.32;;;;;;;-145.69;100.00;52052.28;5074949;28;20640;-94
2023/07/07 06:00:17;;;;;;;6.40;3.28;;;;;;;-145.69;100.00;52062.19;5074183;28;20364;-92
2023/07/07 06:02:45;;;;;;;8.60;3.70;;;;;;;-145.69;100.00;52076.03;5074697;28;20198;-91
2023/07/07 06:05:12;;;;;;;10.57;4.13;;;;;;;-145.69;100.00;52068.13;5078490;28;20282;-96
2023/07/07 06:07:38;;;;;;;21.77;4.45;;;;;;;-145.69;100.00;52050.31;5078420;28;20297;-92
2023/07/07 06:10:06;;;;;;;14.60;4.03;;;;;;;-145.69;100.00;52036.44;5078064;28;20206;-93
2023/07/07 06:12:35;;;;;;;10.00;3.92;;;;;;;-145.69;100.00;52048.31;5081172;28;20705;-92
2023/07/07 06:15:02;;;;;;;7.22;3.72;;;;;;;-145.69;100.00;52076.03;5077869;28;20373;-92
2023/07/07 06:17:28;;;;;;;9.45;4.22;;;;;;;-145.69;100.00;52048.31;5078185;28;20206;-92
2023/07/07 06:19:57;;;;;;;7.90;4.32;;;;;;;-145.69;100.00;52064.16;5077996;28;20202;-92
2023/07/07 06:22:23;;;;;;;7.00;3.90;;;;;;;-145.69;100.00;52062.19;5077824;28;20210;-92
2023/07/07 06:24:50;;;;;;;7.10;3.65;;;;;;;-145.69;100.00;52044.38;5077850;28;20199;-93
2023/07/07 06:27:16;;;;;;;7.22;3.70;;;;;;;-145.69;100.00;52064.16;5077737;28;20565;-93
2023/07/07 06:29:43;;;;;;;6.40;3.40;;;;;;;-145.69;100.00;52044.38;5077739;28;20211;-93
2023/07/07 06:32:10;;;;;;;6.53;3.42;;;;;;;-145.69;100.00;52040.41;5077423;28;20198;-93
2023/07/07 06:34:36;;;;;;;5.80;3.50;;;;;;;-145.69;100.00;52046.34;5077105;28;20214;-93
2023/07/07 06:37:05;;;;;;;9.13;4.43;;;;;;;-145.69;100.00;52040.41;5078337;28;20195;-92
2023/07/07 06:39:32;;;;;;;9.82;4.05;;;;;;;-145.69;100.00;52028.53;5077523;28;20242;-93
2023/07/07 06:42:01;;;;;;;6.90;3.72;;;;;;;-145.69;100.00;52038.44;5078338;28;20245;-92
2023/07/07 06:44:27;;;;;;;6.47;3.40;;;;;;;-145.69;100.00;52036.44;5077954;28;20210;-91
2023/07/07 06:46:54;;;;;;;6.43;3.58;;;;;;;-145.69;100.00;52014.66;5078528;28;20230;-93
2023/07/07 06:49:21;;;;;;;6.85;3.60;;;;;;;-145.69;99.08;52006.75;5077987;28;20206;-91
2023/07/07 06:51:47;;;;;;;6.97;3.25;;;;;;;-145.69;100.00;52024.56;5077755;28;20262;-92
2023/07/07 06:54:15;;;;;;;7.10;3.58;;;;;;;-145.69;100.00;52008.72;5077301;28;20313;-92
2023/07/07 06:56:42;;;;;;;9.48;4.40;;;;;;;-145.69;97.43;52030.50;5078617;28;20217;-92
2023/07/07 06:59:09;;;;;;;8.23;3.80;;;;;;;-145.69;95.17;52018.63;5079524;28;20203;-91
2023/07/07 07:01:36;;;;;;;6.75;3.78;;;;;;;-145.69;94.15;52044.38;5078178;28;20650;-93
2023/07/07 07:04:03;;;;;;;6.53;3.45;;;;;;;-145.69;93.65;52024.56;5077808;28;20206;-92
2023/07/07 07:06:30;;;;;;;6.63;3.60;;;;;;;-145.69;91.58;52022.59;5078019;28;20207;-92
2023/07/07 07:08:56;;;;;;;8.35;4.03;;;;;;;-145.69;94.29;52020.59;5076277;28;20206;-92
2023/07/07 07:11:24;;;;;;;7.07;3.20;;;;;;;-145.69;91.79;52020.59;5078170;28;20218;-91
2023/07/07 07:13:53;;;;;;;8.38;4.45;;;;;;;-145.69;92.38;52006.75;5077588;28;20237;-92
2023/07/07 07:16:20;;;;;;;5.72;3.42;;;;;;;-145.69;85.02;52032.47;5077915;28;20203;-92
2023/07/07 07:18:46;;;;;;;8.95;3.92;;;;;;;-145.69;86.57;52000.81;5078737;28;20211;-92
2023/07/07 07:21:14;;;;;;;8.63;3.63;;;;;;;-145.69;88.41;52000.81;5079462;28;20665;-91
2023/07/07 07:23:40;;;;;;;10.45;4.10;;;;;;;-145.69;87.65;51988.91;5080710;28;20557;-92
2023/07/07 07:26:07;;;;;;;8.13;3.53;;;;;;;-145.69;88.63;52010.69;5080653;28;20234;-91
2023/07/07 07:28:38;;;;;;;7.03;3.63;;;;;;;-145.69;87.83;51973.06;5081277;28;20661;-91
2023/07/07 07:31:04;;;;;;;7.35;3.92;;;;;;;-145.69;83.36;51984.97;5078562;28;20202;-90
2023/07/07 07:33:32;;;;;;;7.10;3.72;;;;;;;-145.69;82.72;52006.75;5079616;28;20233;-91
2023/07/07 07:35:58;;;;;;;6.78;3.70;;;;;;;-145.69;77.73;52008.72;5078225;28;20209;-91
2023/07/07 07:38:25;;;;;;;6.88;3.95;;;;;;;-145.69;77.35;51988.91;5079536;28;20265;-90
2023/07/07 07:40:53;;;;;;;6.63;3.92;;;;;;;-145.69;76.90;51984.97;5079196;28;20217;-91
2023/07/07 07:43:19;;;;;;;9.75;3.83;;;;;;;-145.69;77.46;52000.81;5080826;28;20260;-91
2023/07/07 07:45:49;;;;;;;6.78;3.63;;;;;;;-145.69;77.20;51975.06;5079783;28;20206;-91
2023/07/07 07:48:15;;;;;;;7.15;3.80;;;;;;;-145.69;80.29;51981.00;5078448;28;20680;-91
2023/07/07 07:50:42;;;;;;;7.82;3.90;;;;;;;-145.69;80.75;51977.03;5079043;28;20728;-91
2023/07/07 07:53:09;;;;;;;8.10;4.07;;;;;;;-145.69;71.79;51977.03;5077405;28;20214;-90
2023/07/07 07:55:36;;;;;;;6.93;3.75;;;;;;;-145.69;77.89;51967.13;5077671;28;20309;-89
2023/07/07 07:58:03;;;;;;;7.82;3.97;;;;;;;-145.69;69.48;51973.06;5078993;28;20218;-91
2023/07/07 08:00:29;;;;;;;6.55;3.60;;;;;;;-145.69;66.92;51967.13;5077136;28;20539;-90
2023/07/07 08:02:57;;;;;;;9.57;3.80;;;;;;;-145.69;78.55;51951.28;5077138;28;20225;-90
2023/07/07 08:05:24;;;;;;;6.22;3.83;;;;;;;-145.69;72.03;51996.84;5076812;28;20199;-90
2023/07/07 08:07:51;;;;;;;11.82;3.92;;;;;;;-145.69;60.13;51973.06;5076238;28;20202;-91
2023/07/07 08:10:18;;;;;;;8.18;3.95;;;;;;;-145.69;63.11;51959.22;5076093;28;20220;-90
2023/07/07 08:12:44;;;;;;;10.27;3.88;;;;;;;-145.69;64.99;51981.00;5076158;28;20615;-86
2023/07/07 08:15:12;;;;;;;7.07;3.83;;;;;;;-145.69;62.63;51994.88;5075016;28;20234;-90
2023/07/07 08:17:39;;;;;;;9.82;4.30;;;;;;;-145.69;62.15;51990.91;5075214;28;20519;-89
2023/07/07 08:20:16;;;;;;;7.97;3.50;;;;;;;-145.69;55.82;51975.06;5075869;28;20206;-88
2023/07/07 08:22:43;;;;;;;9.48;3.88;;;;;;;-145.69;56.36;51957.25;5075856;28;20232;-90
2023/07/07 08:25:10;;;;;;;8.23;3.75;;;;;;;-145.69;59.53;51959.22;5074859;28;20205;-90
2023/07/07 08:27:36;;;;;;;7.68;4.05;;;;;;;-145.69;60.40;51986.94;5074981;28;20195;-90
2023/07/07 08:30:04;;;;;;;8.02;3.63;;;;;;;-145.69;56.32;51941.41;5075560;28;20252;-88
2023/07/07 08:32:30;;;;;;;9.43;4.70;;;;;;;-145.69;57.55;51965.16;5075433;28;20543;-89
2023/07/07 08:34:57;;;;;;;8.10;4.18;;;;;;;-145.69;56.07;51945.34;5075167;28;20322;-90
2023/07/07 08:37:26;;;;;;;12.63;4.57;;;;;;;-145.69;57.06;51941.41;5075099;28;20641;-88
2023/07/07 08:39:53;;;;;;;10.23;4.55;;;;;;;-145.69;52.41;51979.03;5075430;28;20203;-89
2023/07/07 08:42:24;;;;;;;8.77;3.92;;;;;;;-145.69;54.91;51933.47;5075709;28;20642;-88
2023/07/07 08:44:51;;;;;;;11.50;3.92;;;;;;;-145.69;67.45;51973.06;5075081;28;20210;-88
2023/07/07 08:47:31;;;;;;;8.23;4.32;;;;;;;-145.69;50.03;51939.41;5074928;28;20209;-88
2023/07/07 08:50:03;;;;;;;10.65;4.28;;;;;;;-145.69;50.43;51941.41;5074576;28;20202;-89
2023/07/07 08:52:43;;;;;;;8.18;4.50;;;;;;;-145.69;57.23;51917.63;5073614;28;20199;-90
2023/07/07 08:55:30;;;;;;;6.75;4.25;;;;;;;-145.69;54.38;51945.34;5074856;28;20226;-88
2023/07/07 08:58:03;;;;;;;8.75;4.32;;;;;;;-145.69;52.76;51945.34;5074760;28;20209;-88
2023/07/07 09:00:45;;;;;;;8.35;4.80;;;;;;;-145.69;49.26;51965.16;5074558;28;20202;-89
2023/07/07 09:03:28;;;;;;;9.68;5.03;;;;;;;-145.69;47.58;51941.41;5074577;28;20211;-89
2023/07/07 09:06:03;;;;;;;9.52;4.70;;;;;;;-145.69;44.70;51949.31;5074617;28;20257;-89
2023/07/07 09:08:38;;;;;;;10.35;4.28;;;;;;;-145.69;47.50;51937.44;5075104;28;20198;-89
2023/07/07 09:11:17;;;;;;;12.32;4.30;;;;;;;-145.69;51.49;51935.47;5074675;28;20637;-89
2023/07/07 09:13:47;;;;;;;9.40;3.85;;;;;;;-145.69;45.01;51913.69;5074486;28;20202;-88
2023/07/07 09:16:22;;;;;;;10.52;3.78;;;;;;;-145.69;44.30;51941.41;5071499;28;20206;-88
2023/07/07 09:18:55;;;;;;;8.55;4.47;;;;;;;-145.69;45.65;51937.44;5074330;28;20206;-89
2023/07/07 09:21:34;;;;;;;9.75;4.45;;;;;;;-145.69;52.42;51923.56;5074599;28;20194;-88
2023/07/07 09:24:12;;;;;;;8.52;3.92;;;;;;;-145.69;45.33;51945.34;5074580;28;20638;-89
2023/07/07 09:26:39;;;;;;;16.58;4.45;;;;;;;-145.69;46.49;51949.31;5074824;28;20659;-89
2023/07/07 09:29:16;;;;;;;8.75;4.13;;;;;;;-145.69;43.89;51945.34;5074461;28;20234;-89
2023/07/07 09:31:44;;;;;;;11.88;4.63;;;;;;;-145.69;45.72;51957.25;5074453;28;20207;-88
2023/07/07 09:34:12;;;;;;;8.77;4.35;;;;;;;-145.69;43.47;51923.56;5074114;28;20657;-88
2023/07/07 09:36:48;;;;;;;11.27;3.90;;;;;;;-145.69;45.92;51907.72;5074233;28;20547;-89
2023/07/07 09:39:30;;;;;;;8.90;3.92;;;;;;;-145.69;46.91;51899.81;5074432;28;20198;-88
2023/07/07 09:42:07;;;;;;;8.43;4.20;;;;;;;-145.69;42.58;51925.56;5073955;28;20230;-88
2023/07/07 09:44:49;;;;;;;8.40;3.92;;;;;;;-145.69;46.87;51905.75;5073874;28;20221;-87
2023/07/07 09:47:26;;;;;;;10.18;4.32;;;;;;;-145.69;45.36;51933.47;5074002;28;20217;-88
2023/07/07 09:49:59;;;;;;;8.73;4.22;;;;;;;-145.69;43.95;51933.47;5073274;28;20203;-85
2023/07/07 09:52:37;;;;;;;10.45;4.20;;;;;;;-145.69;46.66;51889.91;5073934;28;20199;-87
2023/07/07 09:55:12;;;;;;;10.65;4.25;;;;;;;-145.69;45.83;51911.69;5073715;28;20226;-88
2023/07/07 09:57:43;;;;;;;8.82;4.35;;;;;;;-145.69;48.08;51933.47;5073929;28;20206;-87
2023/07/07 10:00:16;;;;;;;11.23;4.13;;;;;;;-145.69;43.25;51935.47;5073842;28;20206;-87
2023/07/07 10:02:44;;;;;;;11.68;4.30;;;;;;;-145.69;44.53;51899.81;5073759;28;20209;-88
2023/07/07 10:05:12;;;;;;;12.00;4.18;;;;;;;-145.69;46.45;51921.59;5072798;28;20205;-87
2023/07/07 10:07:41;;;;;;;8.65;4.50;;;;;;;-145.69;54.80;51899.81;5073917;28;20214;-89
2023/07/07 10:10:14;;;;;;;7.70;4.50;;;;;;;-145.69;45.37;51903.78;5073869;28;20226;-88
2023/07/07 10:12:41;;;;;;;10.88;4.40;;;;;;;-145.69;46.77;51921.59;5073644;28;20209;-87
2023/07/07 10:15:42;;;;;;;8.20;4.13;;;;;;;-145.69;50.72;51891.88;5073425;28;20222;-88
2023/07/07 10:18:15;;;;;;;8.23;4.22;;;;;;;-145.69;43.84;51925.56;5073460;28;20223;-88
2023/07/07 10:20:41;;;;;;;9.27;3.97;;;;;;;-145.69;42.96;51917.63;5073668;28;20206;-88
2023/07/07 10:23:11;;;;;;;8.13;4.07;;;;;;;-145.69;43.23;51893.88;5073704;28;20203;-87
2023/07/07 10:25:40;;;;;;;10.13;3.90;;;;;;;-145.69;41.49;51897.84;5073172;28;20210;-87
2023/07/07 10:28:10;;;;;;;8.38;3.88;;;;;;;-145.69;44.14;51889.91;5073093;28;20198;-88
2023/07/07 10:30:37;;;;;;;7.28;4.00;;;;;;;-145.69;41.29;51899.81;5073504;28;20210;-88
2023/07/07 10:33:03;;;;;;;12.77;4.53;;;;;;;-145.69;41.66;51885.94;5073580;28;20217;-87
2023/07/07 10:35:32;;;;;;;8.98;4.10;;;;;;;-145.69;39.28;51882.00;5073373;28;20231;-87
2023/07/07 10:38:03;;;;;;;8.60;4.05;;;;;;;-145.69;44.17;51905.75;5073350;28;20672;-87
2023/07/07 10:40:30;;;;;;;11.23;3.92;;;;;;;-145.69;41.58;51893.88;5073253;28;20203;-88
2023/07/07 10:42:59;;;;;;;11.13;4.80;;;;;;;-145.69;38.31;51919.63;5073161;28;20687;-87
2023/07/07 10:45:26;;;;;;;10.60;4.03;;;;;;;-145.69;40.72;51903.78;5072019;28;20255;-87
2023/07/07 10:47:53;;;;;;;10.13;4.47;;;;;;;-145.69;40.03;51876.06;5072933;28;20211;-87
2023/07/07 10:50:22;;;;;;;8.85;3.90;;;;;;;-145.69;39.06;51858.22;5076195;28;20231;-87
2023/07/07 10:53:24;;;;;;;9.82;4.13;;;;;;;-145.69;43.86;51907.72;5077131;28;20199;-87
2023/07/07 10:56:21;;;;;;;8.63;4.28;;;;;;;-145.69;42.42;51893.88;5076756;28;20222;-87
2023/07/07 10:59:15;;;;;;;11.60;4.38;;;;;;;-145.69;43.65;51905.75;5042623;28;20203;-87
2023/07/07 11:01:51;;;;;;;10.40;4.13;;;;;;;-145.69;43.12;51927.53;5076473;28;20677;-88
2023/07/07 11:04:39;;;;;;;12.60;4.20;;;;;;;-145.69;42.54;51882.00;5076722;28;20217;-87
2023/07/07 11:07:18;;;;;;;7.78;4.20;;;;;;;-145.69;43.81;51868.13;5073058;28;20642;-87
2023/07/07 11:09:58;;;;;;;8.57;3.55;;;;;;;-145.69;42.37;51923.56;5076436;28;20208;-87
2023/07/07 11:12:29;;;;;;;7.88;4.13;;;;;;;-145.69;39.54;51889.91;5076540;28;20206;-86
2023/07/07 11:15:07;;;;;;;8.45;3.83;;;;;;;-145.69;39.37;51866.16;5076337;28;20226;-86
2023/07/07 11:17:49;;;;;;;9.27;3.90;;;;;;;-145.69;39.20;51864.16;5076475;28;20202;-89
2023/07/07 11:20:38;;;;;;;8.30;3.95;;;;;;;-145.69;40.00;51858.22;5076326;28;20205;-87
2023/07/07 11:23:25;;;;;;;9.30;3.97;;;;;;;-145.69;39.31;51866.16;5075836;28;20608;-87
2023/07/07 11:26:02;;;;;;;9.05;4.13;;;;;;;-145.69;41.11;51883.97;5076531;28;20214;-87